Terminal Aerodrome Forecast
Issued by NWS

Home | Current Version | Previous Version | Text Only | Print | Product List | Glossary On
Versions: 1 2 3 4 5 6 7 8 9 10 11 12 13
885
FTUS43 KJKL 082320
TAFSME
TAF
KSME 082320Z 0900/0924 VRB03KT P6SM OVC200
     FM091500 22008KT P6SM FEW250
     FM091700 24010G15KT P6SM BKN060
     FM092200 28013G20KT P6SM VCSH BKN025=

USA.gov is the U.S. government's official web portal to all federal, state and local government web resources and services.